sensor_id;sensor_type;location;lat;lon;timestamp;pressure;altitude;pressure_sealevel;temperature;humidity
49342;BME280;35210;41.606;-87.602;2023-07-09T00:01:52;99057.66;;;23.79;69.63
49342;BME280;35210;41.606;-87.602;2023-07-09T00:04:20;99059.94;;;23.82;69.85
49342;BME280;35210;41.606;-87.602;2023-07-09T00:06:48;99056.41;;;23.81;69.46
49342;BME280;35210;41.606;-87.602;2023-07-09T00:09:19;99057.09;;;23.70;68.89
49342;BME280;35210;41.606;-87.602;2023-07-09T00:11:48;99054.41;;;23.70;69.02
49342;BME280;35210;41.606;-87.602;2023-07-09T00:14:17;99058.34;;;23.68;70.23
49342;BME280;35210;41.606;-87.602;2023-07-09T00:16:45;99066.03;;;23.71;69.60
49342;BME280;35210;41.606;-87.602;2023-07-09T00:19:18;99068.28;;;23.74;69.88
49342;BME280;35210;41.606;-87.602;2023-07-09T00:21:48;99063.31;;;23.71;70.31
49342;BME280;35210;41.606;-87.602;2023-07-09T00:24:19;99065.41;;;23.69;70.26
49342;BME280;35210;41.606;-87.602;2023-07-09T00:26:47;99067.06;;;23.63;70.50
49342;BME280;35210;41.606;-87.602;2023-07-09T00:29:16;99071.66;;;23.56;69.44
49342;BME280;35210;41.606;-87.602;2023-07-09T00:31:45;99077.63;;;23.51;70.01
49342;BME280;35210;41.606;-87.602;2023-07-09T00:34:15;99077.03;;;23.56;70.77
49342;BME280;35210;41.606;-87.602;2023-07-09T00:36:47;99082.22;;;23.57;70.25
49342;BME280;35210;41.606;-87.602;2023-07-09T00:39:21;99088.19;;;23.53;71.06
49342;BME280;35210;41.606;-87.602;2023-07-09T00:41:50;99087.00;;;23.55;71.60
49342;BME280;35210;41.606;-87.602;2023-07-09T00:44:27;99084.06;;;23.50;72.00
49342;BME280;35210;41.606;-87.602;2023-07-09T00:47:22;99091.94;;;23.45;72.45
49342;BME280;35210;41.606;-87.602;2023-07-09T00:50:02;99097.34;;;23.45;72.98
49342;BME280;35210;41.606;-87.602;2023-07-09T00:52:35;99091.31;;;23.43;73.70
49342;BME280;35210;41.606;-87.602;2023-07-09T00:55:08;99090.28;;;23.44;74.51
49342;BME280;35210;41.606;-87.602;2023-07-09T00:57:39;99098.59;;;23.43;74.94
49342;BME280;35210;41.606;-87.602;2023-07-09T01:00:11;99098.78;;;23.41;75.40
49342;BME280;35210;41.606;-87.602;2023-07-09T01:02:44;99089.03;;;23.40;75.92
49342;BME280;35210;41.606;-87.602;2023-07-09T01:05:17;99085.72;;;23.38;76.23
49342;BME280;35210;41.606;-87.602;2023-07-09T01:07:46;99091.13;;;23.38;76.51
49342;BME280;35210;41.606;-87.602;2023-07-09T01:10:16;99101.06;;;23.38;77.17
49342;BME280;35210;41.606;-87.602;2023-07-09T01:12:46;99107.69;;;23.35;77.72
49342;BME280;35210;41.606;-87.602;2023-07-09T01:15:16;99100.66;;;23.34;77.96
49342;BME280;35210;41.606;-87.602;2023-07-09T01:17:44;99101.06;;;23.31;77.99
49342;BME280;35210;41.606;-87.602;2023-07-09T01:20:18;99103.16;;;23.29;78.10
49342;BME280;35210;41.606;-87.602;2023-07-09T01:22:51;99097.34;;;23.25;78.13
49342;BME280;35210;41.606;-87.602;2023-07-09T01:25:21;99107.28;;;23.25;78.53
49342;BME280;35210;41.606;-87.602;2023-07-09T01:27:50;99103.97;;;23.23;79.05
49342;BME280;35210;41.606;-87.602;2023-07-09T01:30:21;99105.41;;;23.19;79.74
49342;BME280;35210;41.606;-87.602;2023-07-09T01:32:50;99112.25;;;23.15;80.00
49342;BME280;35210;41.606;-87.602;2023-07-09T01:35:20;99116.41;;;23.11;80.48
49342;BME280;35210;41.606;-87.602;2023-07-09T01:37:49;99119.31;;;23.09;80.29
49342;BME280;35210;41.606;-87.602;2023-07-09T01:40:19;99124.25;;;23.06;80.53
49342;BME280;35210;41.606;-87.602;2023-07-09T01:42:49;99128.00;;;23.05;80.93
49342;BME280;35210;41.606;-87.602;2023-07-09T01:45:17;99127.81;;;23.00;81.23
49342;BME280;35210;41.606;-87.602;2023-07-09T01:47:47;99131.94;;;22.96;81.70
49342;BME280;35210;41.606;-87.602;2023-07-09T01:50:15;99125.94;;;22.93;81.81
49342;BME280;35210;41.606;-87.602;2023-07-09T01:52:45;99135.47;;;22.89;82.14
49342;BME280;35210;41.606;-87.602;2023-07-09T01:55:17;99129.44;;;22.87;82.22
49342;BME280;35210;41.606;-87.602;2023-07-09T01:57:45;99136.47;;;22.82;82.77
49342;BME280;35210;41.606;-87.602;2023-07-09T02:00:16;99143.09;;;22.79;82.93
49342;BME280;35210;41.606;-87.602;2023-07-09T02:02:46;99142.63;;;22.76;83.13
49342;BME280;35210;41.606;-87.602;2023-07-09T02:05:15;99146.56;;;22.73;83.47
49342;BME280;35210;41.606;-87.602;2023-07-09T02:07:44;99146.16;;;22.70;83.64
49342;BME280;35210;41.606;-87.602;2023-07-09T02:10:14;99144.69;;;22.67;83.94
49342;BME280;35210;41.606;-87.602;2023-07-09T02:12:43;99142.81;;;22.61;84.31
49342;BME280;35210;41.606;-87.602;2023-07-09T02:15:12;99146.53;;;22.60;84.59
49342;BME280;35210;41.606;-87.602;2023-07-09T02:17:40;99142.81;;;22.61;84.24
49342;BME280;35210;41.606;-87.602;2023-07-09T02:20:10;99144.47;;;22.62;84.33
49342;BME280;35210;41.606;-87.602;2023-07-09T02:22:39;99159.34;;;22.58;84.67
49342;BME280;35210;41.606;-87.602;2023-07-09T02:25:08;99161.22;;;22.57;84.73
49342;BME280;35210;41.606;-87.602;2023-07-09T02:27:37;99156.03;;;22.56;85.00
49342;BME280;35210;41.606;-87.602;2023-07-09T02:30:08;99154.38;;;22.55;85.03
49342;BME280;35210;41.606;-87.602;2023-07-09T02:32:37;99157.28;;;22.53;85.09
49342;BME280;35210;41.606;-87.602;2023-07-09T02:35:06;99156.00;;;22.49;85.10
49342;BME280;35210;41.606;-87.602;2023-07-09T02:37:34;99155.59;;;22.46;85.41
49342;BME280;35210;41.606;-87.602;2023-07-09T02:40:05;99152.66;;;22.41;85.41
49342;BME280;35210;41.606;-87.602;2023-07-09T02:42:34;99158.44;;;22.38;85.70
49342;BME280;35210;41.606;-87.602;2023-07-09T02:45:03;99170.03;;;22.38;85.48
49342;BME280;35210;41.606;-87.602;2023-07-09T02:47:32;99160.50;;;22.36;85.59
49342;BME280;35210;41.606;-87.602;2023-07-09T02:50:00;99163.00;;;22.37;85.68
49342;BME280;35210;41.606;-87.602;2023-07-09T02:52:29;99161.53;;;22.35;85.91
49342;BME280;35210;41.606;-87.602;2023-07-09T02:54:58;99168.78;;;22.34;85.93
49342;BME280;35210;41.606;-87.602;2023-07-09T02:57:26;99172.69;;;22.32;86.21
49342;BME280;35210;41.606;-87.602;2023-07-09T02:59:54;99178.47;;;22.28;86.26
49342;BME280;35210;41.606;-87.602;2023-07-09T03:02:22;99177.25;;;22.24;86.53
49342;BME280;35210;41.606;-87.602;2023-07-09T03:04:51;99176.59;;;22.22;86.34
49342;BME280;35210;41.606;-87.602;2023-07-09T03:07:19;99182.59;;;22.18;86.49
49342;BME280;35210;41.606;-87.602;2023-07-09T03:09:47;99178.63;;;22.14;86.92
49342;BME280;35210;41.606;-87.602;2023-07-09T03:12:16;99186.91;;;22.12;86.76
49342;BME280;35210;41.606;-87.602;2023-07-09T03:14:47;99189.59;;;22.12;87.05
49342;BME280;35210;41.606;-87.602;2023-07-09T03:17:16;99186.91;;;22.12;87.18
49342;BME280;35210;41.606;-87.602;2023-07-09T03:19:44;99180.88;;;22.10;87.15
49342;BME280;35210;41.606;-87.602;2023-07-09T03:22:14;99181.47;;;22.06;87.26
49342;BME280;35210;41.606;-87.602;2023-07-09T03:24:42;99181.69;;;22.04;87.43
49342;BME280;35210;41.606;-87.602;2023-07-09T03:27:11;99187.06;;;22.04;87.67
49342;BME280;35210;41.606;-87.602;2023-07-09T03:29:39;99182.03;;;22.01;88.09
49342;BME280;35210;41.606;-87.602;2023-07-09T03:32:07;99181.41;;;21.99;87.83
49342;BME280;35210;41.606;-87.602;2023-07-09T03:34:36;99173.94;;;21.94;87.70
49342;BME280;35210;41.606;-87.602;2023-07-09T03:37:04;99173.06;;;21.87;88.01
49342;BME280;35210;41.606;-87.602;2023-07-09T03:39:34;99170.13;;;21.82;88.40
49342;BME280;35210;41.606;-87.602;2023-07-09T03:42:02;99171.94;;;21.75;88.69
49342;BME280;35210;41.606;-87.602;2023-07-09T03:44:30;99170.88;;;21.70;88.84
49342;BME280;35210;41.606;-87.602;2023-07-09T03:46:58;99179.69;;;21.63;88.88
49342;BME280;35210;41.606;-87.602;2023-07-09T03:49:27;99170.75;;;21.56;89.25
49342;BME280;35210;41.606;-87.602;2023-07-09T03:51:55;99175.09;;;21.51;89.42
49342;BME280;35210;41.606;-87.602;2023-07-09T03:54:23;99173.38;;;21.43;89.57
49342;BME280;35210;41.606;-87.602;2023-07-09T03:56:52;99175.63;;;21.40;89.94
49342;BME280;35210;41.606;-87.602;2023-07-09T03:59:20;99179.50;;;21.37;89.93
49342;BME280;35210;41.606;-87.602;2023-07-09T04:01:48;99179.91;;;21.34;89.66
49342;BME280;35210;41.606;-87.602;2023-07-09T04:04:16;99185.03;;;21.29;90.32
49342;BME280;35210;41.606;-87.602;2023-07-09T04:06:46;99185.59;;;21.24;90.60
49342;BME280;35210;41.606;-87.602;2023-07-09T04:09:14;99193.00;;;21.22;91.11
49342;BME280;35210;41.606;-87.602;2023-07-09T04:11:42;99194.38;;;21.18;91.18
49342;BME280;35210;41.606;-87.602;2023-07-09T04:14:12;99190.22;;;21.16;91.63
49342;BME280;35210;41.606;-87.602;2023-07-09T04:16:40;99186.91;;;21.14;91.71
49342;BME280;35210;41.606;-87.602;2023-07-09T04:19:08;99178.41;;;21.10;91.78
49342;BME280;35210;41.606;-87.602;2023-07-09T04:21:37;99183.97;;;21.09;92.07
49342;BME280;35210;41.606;-87.602;2023-07-09T04:24:06;99185.19;;;21.06;92.25
49342;BME280;35210;41.606;-87.602;2023-07-09T04:26:34;99181.03;;;21.04;92.49
49342;BME280;35210;41.606;-87.602;2023-07-09T04:29:06;99181.03;;;21.04;92.62
49342;BME280;35210;41.606;-87.602;2023-07-09T04:31:36;99179.75;;;20.99;92.71
49342;BME280;35210;41.606;-87.602;2023-07-09T04:34:04;99175.59;;;20.97;93.02
49342;BME280;35210;41.606;-87.602;2023-07-09T04:36:32;99183.81;;;20.95;93.22
49342;BME280;35210;41.606;-87.602;2023-07-09T04:39:02;99180.50;;;20.93;93.04
49342;BME280;35210;41.606;-87.602;2023-07-09T04:41:31;99178.84;;;20.92;93.16
49342;BME280;35210;41.606;-87.602;2023-07-09T04:43:59;99177.16;;;20.91;93.34
49342;BME280;35210;41.606;-87.602;2023-07-09T04:46:27;99181.72;;;20.91;93.30
49342;BME280;35210;41.606;-87.602;2023-07-09T04:48:57;99177.56;;;20.88;93.61
49342;BME280;35210;41.606;-87.602;2023-07-09T04:51:26;99182.28;;;20.86;93.63
49342;BME280;35210;41.606;-87.602;2023-07-09T04:53:54;99188.84;;;20.84;93.86
49342;BME280;35210;41.606;-87.602;2023-07-09T04:56:22;99181.19;;;20.81;94.12
49342;BME280;35210;41.606;-87.602;2023-07-09T04:58:50;99188.63;;;20.79;94.10
49342;BME280;35210;41.606;-87.602;2023-07-09T05:01:18;99188.16;;;20.75;94.54
49342;BME280;35210;41.606;-87.602;2023-07-09T05:03:47;99185.69;;;20.74;94.76
49342;BME280;35210;41.606;-87.602;2023-07-09T05:06:17;99190.22;;;20.73;94.53
49342;BME280;35210;41.606;-87.602;2023-07-09T05:08:45;99188.34;;;20.74;94.83
49342;BME280;35210;41.606;-87.602;2023-07-09T05:11:14;99199.09;;;20.74;94.77
49342;BME280;35210;41.606;-87.602;2023-07-09T05:13:43;99191.41;;;20.71;94.93
49342;BME280;35210;41.606;-87.602;2023-07-09T05:16:11;99179.22;;;20.68;95.03
49342;BME280;35210;41.606;-87.602;2023-07-09T05:18:39;99186.63;;;20.66;95.06
49342;BME280;35210;41.606;-87.602;2023-07-09T05:21:07;99180.81;;;20.62;95.18
49342;BME280;35210;41.606;-87.602;2023-07-09T05:23:37;99184.31;;;20.63;95.24
49342;BME280;35210;41.606;-87.602;2023-07-09T05:26:06;99184.69;;;20.60;95.16
49342;BME280;35210;41.606;-87.602;2023-07-09T05:28:34;99187.94;;;20.55;95.30
49342;BME280;35210;41.606;-87.602;2023-07-09T05:31:04;99183.78;;;20.53;95.21
49342;BME280;35210;41.606;-87.602;2023-07-09T05:33:32;99188.50;;;20.51;95.23
49342;BME280;35210;41.606;-87.602;2023-07-09T05:36:00;99186.19;;;20.48;95.25
49342;BME280;35210;41.606;-87.602;2023-07-09T05:38:29;99182.88;;;20.46;95.49
49342;BME280;35210;41.606;-87.602;2023-07-09T05:41:03;99189.25;;;20.45;95.59
49342;BME280;35210;41.606;-87.602;2023-07-09T05:43:31;99183.25;;;20.43;95.64
49342;BME280;35210;41.606;-87.602;2023-07-09T05:46:01;99178.06;;;20.41;95.78
49342;BME280;35210;41.606;-87.602;2023-07-09T05:48:30;99182.59;;;20.41;95.72
49342;BME280;35210;41.606;-87.602;2023-07-09T05:51:00;99180.94;;;20.40;95.56
49342;BME280;35210;41.606;-87.602;2023-07-09T05:53:28;99181.13;;;20.38;95.23
49342;BME280;35210;41.606;-87.602;2023-07-09T05:55:58;99178.13;;;20.33;95.41
49342;BME280;35210;41.606;-87.602;2023-07-09T05:58:27;99182.00;;;20.30;95.53
49342;BME280;35210;41.606;-87.602;2023-07-09T06:00:55;99183.41;;;20.26;95.46
49342;BME280;35210;41.606;-87.602;2023-07-09T06:03:25;99184.59;;;20.24;95.64
49342;BME280;35210;41.606;-87.602;2023-07-09T06:05:53;99188.31;;;20.23;95.49
49342;BME280;35210;41.606;-87.602;2023-07-09T06:08:23;99180.06;;;20.24;95.82
49342;BME280;35210;41.606;-87.602;2023-07-09T06:10:54;99187.47;;;20.22;95.66
49342;BME280;35210;41.606;-87.602;2023-07-09T06:13:22;99180.81;;;20.18;95.48
49342;BME280;35210;41.606;-87.602;2023-07-09T06:15:55;99182.84;;;20.16;95.58
49342;BME280;35210;41.606;-87.602;2023-07-09T06:18:23;99179.91;;;20.11;95.83
49342;BME280;35210;41.606;-87.602;2023-07-09T06:20:56;99178.22;;;20.10;95.72
49342;BME280;35210;41.606;-87.602;2023-07-09T06:23:25;99172.88;;;20.10;95.66
49342;BME280;35210;41.606;-87.602;2023-07-09T06:25:53;99169.53;;;20.08;95.48
49342;BME280;35210;41.606;-87.602;2023-07-09T06:28:23;99166.22;;;20.06;95.72
49342;BME280;35210;41.606;-87.602;2023-07-09T06:30:53;99162.91;;;20.04;95.57
49342;BME280;35210;41.606;-87.602;2023-07-09T06:33:21;99162.47;;;20.00;95.57
49342;BME280;35210;41.606;-87.602;2023-07-09T06:35:50;99165.13;;;20.00;95.88
49342;BME280;35210;41.606;-87.602;2023-07-09T06:38:19;99166.34;;;19.98;96.05
49342;BME280;35210;41.606;-87.602;2023-07-09T06:40:47;99167.53;;;19.95;96.02
49342;BME280;35210;41.606;-87.602;2023-07-09T06:43:15;99168.56;;;19.94;96.33
49342;BME280;35210;41.606;-87.602;2023-07-09T06:45:51;99167.06;;;19.92;96.48
49342;BME280;35210;41.606;-87.602;2023-07-09T06:48:22;99172.81;;;19.89;96.41
49342;BME280;35210;41.606;-87.602;2023-07-09T06:50:51;99164.75;;;19.89;96.43
49342;BME280;35210;41.606;-87.602;2023-07-09T06:53:20;99170.13;;;19.89;96.00
49342;BME280;35210;41.606;-87.602;2023-07-09T06:55:48;99176.69;;;19.86;96.05
49342;BME280;35210;41.606;-87.602;2023-07-09T06:58:17;99180.56;;;19.84;96.21
49342;BME280;35210;41.606;-87.602;2023-07-09T07:00:49;99173.06;;;19.79;96.04
49342;BME280;35210;41.606;-87.602;2023-07-09T07:03:17;99163.56;;;19.77;95.87
49342;BME280;35210;41.606;-87.602;2023-07-09T07:05:48;99158.38;;;19.75;95.79
49342;BME280;35210;41.606;-87.602;2023-07-09T07:08:18;99161.59;;;19.71;95.56
49342;BME280;35210;41.606;-87.602;2023-07-09T07:10:47;99165.28;;;19.69;95.68
49342;BME280;35210;41.606;-87.602;2023-07-09T07:13:15;99156.63;;;19.67;95.27
49342;BME280;35210;41.606;-87.602;2023-07-09T07:15:48;99143.41;;;19.66;95.19
49342;BME280;35210;41.606;-87.602;2023-07-09T07:18:17;99146.63;;;19.61;95.39
49342;BME280;35210;41.606;-87.602;2023-07-09T07:20:46;99140.25;;;19.62;95.45
49342;BME280;35210;41.606;-87.602;2023-07-09T07:23:14;99136.75;;;19.62;95.29
49342;BME280;35210;41.606;-87.602;2023-07-09T07:25:44;99140.44;;;19.61;95.46
49342;BME280;35210;41.606;-87.602;2023-07-09T07:28:12;99143.31;;;19.59;95.46
49342;BME280;35210;41.606;-87.602;2023-07-09T07:30:40;99146.16;;;19.58;95.39
49342;BME280;35210;41.606;-87.602;2023-07-09T07:33:09;99147.34;;;19.55;95.70
49342;BME280;35210;41.606;-87.602;2023-07-09T07:35:37;99141.16;;;19.55;95.79
49342;BME280;35210;41.606;-87.602;2023-07-09T07:38:07;99141.41;;;19.45;96.30
49342;BME280;35210;41.606;-87.602;2023-07-09T07:40:35;99139.72;;;19.44;96.13
49342;BME280;35210;41.606;-87.602;2023-07-09T07:43:03;99137.13;;;19.36;96.78
49342;BME280;35210;41.606;-87.602;2023-07-09T07:45:31;99130.94;;;19.35;96.83
49342;BME280;35210;41.606;-87.602;2023-07-09T07:47:59;99130.47;;;19.32;96.83
49342;BME280;35210;41.606;-87.602;2023-07-09T07:50:27;99127.16;;;19.30;96.62
49342;BME280;35210;41.606;-87.602;2023-07-09T07:52:55;99130.69;;;19.30;96.16
49342;BME280;35210;41.606;-87.602;2023-07-09T07:55:25;99132.72;;;19.28;96.77
49342;BME280;35210;41.606;-87.602;2023-07-09T07:57:53;99134.44;;;19.21;97.17
49342;BME280;35210;41.606;-87.602;2023-07-09T08:00:23;99136.28;;;19.21;97.88
49342;BME280;35210;41.606;-87.602;2023-07-09T08:02:51;99131.94;;;19.20;97.58
49342;BME280;35210;41.606;-87.602;2023-07-09T08:05:19;99121.25;;;19.20;97.35
49342;BME280;35210;41.606;-87.602;2023-07-09T08:07:47;99125.94;;;19.18;97.43
49342;BME280;35210;41.606;-87.602;2023-07-09T08:10:15;99122.44;;;19.17;97.32
49342;BME280;35210;41.606;-87.602;2023-07-09T08:12:45;99124.09;;;19.18;97.74
49342;BME280;35210;41.606;-87.602;2023-07-09T08:15:14;99126.47;;;19.13;96.97
49342;BME280;35210;41.606;-87.602;2023-07-09T08:17:42;99127.66;;;19.11;97.04
49342;BME280;35210;41.606;-87.602;2023-07-09T08:20:11;99134.69;;;19.12;97.40
49342;BME280;35210;41.606;-87.602;2023-07-09T08:22:40;99127.31;;;19.14;97.33
49342;BME280;35210;41.606;-87.602;2023-07-09T08:25:08;99127.31;;;19.14;97.44
49342;BME280;35210;41.606;-87.602;2023-07-09T08:27:36;99125.28;;;19.16;97.27
49342;BME280;35210;41.606;-87.602;2023-07-09T08:30:07;99117.91;;;19.18;97.29
49342;BME280;35210;41.606;-87.602;2023-07-09T08:32:38;99121.59;;;19.17;97.07
49342;BME280;35210;41.606;-87.602;2023-07-09T08:35:07;99118.75;;;19.18;97.09
49342;BME280;35210;41.606;-87.602;2023-07-09T08:37:36;99110.91;;;19.17;97.17
49342;BME280;35210;41.606;-87.602;2023-07-09T08:40:07;99114.75;;;19.14;96.87
49342;BME280;35210;41.606;-87.602;2023-07-09T08:42:45;99125.66;;;19.13;96.88
49342;BME280;35210;41.606;-87.602;2023-07-09T08:45:33;99122.31;;;19.11;96.87
49342;BME280;35210;41.606;-87.602;2023-07-09T08:48:06;99117.81;;;19.11;96.92
49342;BME280;35210;41.606;-87.602;2023-07-09T08:50:40;99113.28;;;19.12;97.09
49342;BME280;35210;41.606;-87.602;2023-07-09T08:53:16;99108.94;;;19.11;96.70
49342;BME280;35210;41.606;-87.602;2023-07-09T08:55:48;99111.63;;;19.11;96.33
49342;BME280;35210;41.606;-87.602;2023-07-09T08:58:24;99117.69;;;19.04;96.57
49342;BME280;35210;41.606;-87.602;2023-07-09T09:00:56;99109.66;;;19.04;96.49
49342;BME280;35210;41.606;-87.602;2023-07-09T09:03:31;99105.69;;;19.00;96.68
49342;BME280;35210;41.606;-87.602;2023-07-09T09:06:10;99100.50;;;18.99;96.57
49342;BME280;35210;41.606;-87.602;2023-07-09T09:08:41;99103.34;;;18.97;96.68
49342;BME280;35210;41.606;-87.602;2023-07-09T09:11:16;99105.03;;;18.98;96.74
49342;BME280;35210;41.606;-87.602;2023-07-09T09:13:49;99108.88;;;18.96;96.29
49342;BME280;35210;41.606;-87.602;2023-07-09T09:16:27;99113.75;;;18.92;96.39
49342;BME280;35210;41.606;-87.602;2023-07-09T09:18:59;99116.44;;;18.92;96.24
49342;BME280;35210;41.606;-87.602;2023-07-09T09:21:31;99111.81;;;18.86;96.69
49342;BME280;35210;41.606;-87.602;2023-07-09T09:24:12;99111.16;;;18.84;96.18
49342;BME280;35210;41.606;-87.602;2023-07-09T09:26:42;99112.34;;;18.82;95.96
49342;BME280;35210;41.606;-87.602;2023-07-09T09:29:13;99116.19;;;18.79;96.25
49342;BME280;35210;41.606;-87.602;2023-07-09T09:31:46;99113.88;;;18.76;95.97
49342;BME280;35210;41.606;-87.602;2023-07-09T09:34:21;99122.09;;;18.75;96.20
49342;BME280;35210;41.606;-87.602;2023-07-09T09:36:49;99125.94;;;18.72;96.48
49342;BME280;35210;41.606;-87.602;2023-07-09T09:39:18;99121.78;;;18.69;96.71
49342;BME280;35210;41.606;-87.602;2023-07-09T09:41:46;99119.94;;;18.70;96.11
49342;BME280;35210;41.606;-87.602;2023-07-09T09:44:23;99119.28;;;18.68;95.62
49342;BME280;35210;41.606;-87.602;2023-07-09T09:46:56;99106.94;;;18.67;95.81
49342;BME280;35210;41.606;-87.602;2023-07-09T09:49:27;99120.28;;;18.67;95.90
49342;BME280;35210;41.606;-87.602;2023-07-09T09:51:55;99107.75;;;18.67;96.07
49342;BME280;35210;41.606;-87.602;2023-07-09T09:54:29;99115.44;;;18.70;96.05
49342;BME280;35210;41.606;-87.602;2023-07-09T09:56:59;99114.59;;;18.70;95.83
49342;BME280;35210;41.606;-87.602;2023-07-09T09:59:30;99115.25;;;18.72;95.51
49342;BME280;35210;41.606;-87.602;2023-07-09T10:02:02;99112.94;;;18.69;95.25
49342;BME280;35210;41.606;-87.602;2023-07-09T10:04:30;99121.97;;;18.68;95.16
49342;BME280;35210;41.606;-87.602;2023-07-09T10:07:03;99117.28;;;18.70;95.13
49342;BME280;35210;41.606;-87.602;2023-07-09T10:09:41;99112.94;;;18.69;94.80
49342;BME280;35210;41.606;-87.602;2023-07-09T10:12:18;99104.25;;;18.67;93.99
49342;BME280;35210;41.606;-87.602;2023-07-09T10:14:56;99109.13;;;18.63;93.72
49342;BME280;35210;41.606;-87.602;2023-07-09T10:17:36;99115.81;;;18.59;94.32
49342;BME280;35210;41.606;-87.602;2023-07-09T10:20:09;99115.97;;;18.58;94.64
49342;BME280;35210;41.606;-87.602;2023-07-09T10:22:51;99112.47;;;18.57;94.34
49342;BME280;35210;41.606;-87.602;2023-07-09T10:25:33;99115.16;;;18.57;94.77
49342;BME280;35210;41.606;-87.602;2023-07-09T10:28:24;99115.97;;;18.58;94.78
49342;BME280;35210;41.606;-87.602;2023-07-09T10:31:06;99124.22;;;18.56;94.74
49342;BME280;35210;41.606;-87.602;2023-07-09T10:33:48;99123.38;;;18.56;95.25
49342;BME280;35210;41.606;-87.602;2023-07-09T10:36:29;99118.03;;;18.56;95.45
49342;BME280;35210;41.606;-87.602;2023-07-09T10:39:02;99125.38;;;18.54;95.46
49342;BME280;35210;41.606;-87.602;2023-07-09T10:41:31;99125.38;;;18.54;95.70
49342;BME280;35210;41.606;-87.602;2023-07-09T10:44:06;99122.06;;;18.52;95.64
49342;BME280;35210;41.606;-87.602;2023-07-09T10:46:40;99120.75;;;18.48;95.82
49342;BME280;35210;41.606;-87.602;2023-07-09T10:49:14;99125.09;;;18.49;95.51
49342;BME280;35210;41.606;-87.602;2023-07-09T10:51:48;99120.75;;;18.48;95.20
49342;BME280;35210;41.606;-87.602;2023-07-09T10:54:28;99134.47;;;18.45;95.23
49342;BME280;35210;41.606;-87.602;2023-07-09T10:57:02;99135.66;;;18.42;94.70
49342;BME280;35210;41.606;-87.602;2023-07-09T10:59:32;99142.00;;;18.41;95.52
49342;BME280;35210;41.606;-87.602;2023-07-09T11:02:13;99145.50;;;18.42;95.58
49342;BME280;35210;41.606;-87.602;2023-07-09T11:04:48;99144.50;;;18.43;96.39
49342;BME280;35210;41.606;-87.602;2023-07-09T11:07:22;99146.03;;;18.37;97.34
49342;BME280;35210;41.606;-87.602;2023-07-09T11:09:52;99151.50;;;18.44;96.92
49342;BME280;35210;41.606;-87.602;2023-07-09T11:12:29;99145.34;;;18.43;97.35
49342;BME280;35210;41.606;-87.602;2023-07-09T11:15:01;99159.34;;;18.45;97.55
49342;BME280;35210;41.606;-87.602;2023-07-09T11:17:31;99155.19;;;18.43;97.92
49342;BME280;35210;41.606;-87.602;2023-07-09T11:20:15;99152.53;;;18.43;98.52
49342;BME280;35210;41.606;-87.602;2023-07-09T11:22:52;99149.50;;;18.46;98.89
49342;BME280;35210;41.606;-87.602;2023-07-09T11:25:29;99148.63;;;18.53;98.57
49342;BME280;35210;41.606;-87.602;2023-07-09T11:28:04;99154.06;;;18.60;98.92
49342;BME280;35210;41.606;-87.602;2023-07-09T11:30:32;99152.41;;;18.59;99.11
49342;BME280;35210;41.606;-87.602;2023-07-09T11:33:02;99153.09;;;18.61;99.76
49342;BME280;35210;41.606;-87.602;2023-07-09T11:35:47;99157.25;;;18.63;100.00
49342;BME280;35210;41.606;-87.602;2023-07-09T11:38:18;99154.41;;;18.65;100.00
49342;BME280;35210;41.606;-87.602;2023-07-09T11:40:49;99155.72;;;18.69;100.00
49342;BME280;35210;41.606;-87.602;2023-07-09T11:43:31;99154.53;;;18.71;100.00
49342;BME280;35210;41.606;-87.602;2023-07-09T11:46:09;99157.88;;;18.74;100.00
49342;BME280;35210;41.606;-87.602;2023-07-09T11:48:40;99159.19;;;18.78;100.00
49342;BME280;35210;41.606;-87.602;2023-07-09T11:51:15;99159.97;;;18.86;100.00
49342;BME280;35210;41.606;-87.602;2023-07-09T11:53:48;99158.72;;;18.97;100.00
49342;BME280;35210;41.606;-87.602;2023-07-09T11:56:19;99159.53;;;18.97;100.00
49342;BME280;35210;41.606;-87.602;2023-07-09T11:58:51;99155.97;;;19.05;100.00
49342;BME280;35210;41.606;-87.602;2023-07-09T12:01:22;99150.09;;;19.10;100.00
49342;BME280;35210;41.606;-87.602;2023-07-09T12:03:51;99157.41;;;19.16;100.00
49342;BME280;35210;41.606;-87.602;2023-07-09T12:06:22;99167.56;;;19.20;100.00
49342;BME280;35210;41.606;-87.602;2023-07-09T12:08:51;99170.84;;;19.30;100.00
49342;BME280;35210;41.606;-87.602;2023-07-09T12:11:21;99174.97;;;19.33;100.00
49342;BME280;35210;41.606;-87.602;2023-07-09T12:13:50;99175.09;;;19.40;100.00
49342;BME280;35210;41.606;-87.602;2023-07-09T12:16:24;99181.75;;;19.44;100.00
49342;BME280;35210;41.606;-87.602;2023-07-09T12:18:53;99175.84;;;19.48;100.00
49342;BME280;35210;41.606;-87.602;2023-07-09T12:21:23;99176.75;;;19.63;100.00
49342;BME280;35210;41.606;-87.602;2023-07-09T12:23:53;99178.63;;;19.78;100.00
49342;BME280;35210;41.606;-87.602;2023-07-09T12:26:22;99193.97;;;19.84;100.00
49342;BME280;35210;41.606;-87.602;2023-07-09T12:28:54;99188.69;;;19.90;100.00
49342;BME280;35210;41.606;-87.602;2023-07-09T12:31:29;99187.13;;;19.96;99.69
49342;BME280;35210;41.606;-87.602;2023-07-09T12:33:58;99197.13;;;20.02;99.27
49342;BME280;35210;41.606;-87.602;2023-07-09T12:36:29;99195.97;;;20.11;98.75
49342;BME280;35210;41.606;-87.602;2023-07-09T12:39:02;99193.22;;;20.19;98.38
49342;BME280;35210;41.606;-87.602;2023-07-09T12:41:35;99200.78;;;20.30;98.14
49342;BME280;35210;41.606;-87.602;2023-07-09T12:44:08;99200.72;;;20.39;97.39
49342;BME280;35210;41.606;-87.602;2023-07-09T12:46:41;99217.72;;;20.46;97.10
49342;BME280;35210;41.606;-87.602;2023-07-09T12:49:23;99216.88;;;20.60;96.58
49342;BME280;35210;41.606;-87.602;2023-07-09T12:51:53;99222.78;;;20.70;95.97
49342;BME280;35210;41.606;-87.602;2023-07-09T12:54:23;99223.25;;;20.74;95.25
49342;BME280;35210;41.606;-87.602;2023-07-09T12:56:52;99230.72;;;20.78;95.49
49342;BME280;35210;41.606;-87.602;2023-07-09T12:59:22;99228.16;;;20.91;95.11